Time;durP1;ratioP1;P1;durP2;ratioP2;P2;SDS_P1;SDS_P2;PMS_P1;PMS_P2;Temp;Humidity;BMP_temperature;BMP_pressure;BME280_temperature;BME280_humidity;BME280_pressure;Samples;Min_cycle;Max_cycle;Signal;HPM_P1;HPM_P2
2022/01/26 00:06:42;;;;;;;92.53;39.80;;;;;;;-142.75;100.00;79687.59;4954278;28;20527;-66
2022/01/26 00:09:08;;;;;;;93.73;40.80;;;;;;;-142.75;100.00;79685.63;4953847;28;20023;-66
2022/01/26 00:11:35;;;;;;;;;;;;;;;-142.75;100.00;79671.84;4954514;28;20516;-65
2022/01/26 00:14:02;;;;;;;86.22;36.88;;;;;;;-142.75;100.00;79671.84;4954018;28;20013;-65
2022/01/26 00:16:43;;;;;;;91.87;41.17;;;;;;;-142.75;100.00;79673.81;4954867;28;20031;-66
2022/01/26 00:19:25;;;;;;;92.60;41.10;;;;;;;-142.75;100.00;79671.84;4963734;28;20023;-66
2022/01/26 00:21:52;;;;;;;89.03;39.23;;;;;;;-142.75;100.00;79669.88;4953988;28;20073;-66
2022/01/26 00:29:34;;;;;;;91.93;40.77;;;;;;;-142.75;100.00;79697.44;4953739;28;20031;-66
2022/01/26 00:33:06;;;;;;;90.07;40.47;;;;;;;-142.75;100.00;79701.38;4953595;28;20442;-66
2022/01/26 00:40:40;;;;;;;84.93;37.83;;;;;;;-142.75;100.00;79691.53;4953656;28;20041;-66
2022/01/26 00:43:24;;;;;;;90.03;40.73;;;;;;;-142.75;100.00;79689.56;4953603;28;20071;-65
2022/01/26 00:45:55;;;;;;;91.57;40.67;;;;;;;-142.75;100.00;79665.94;4954435;28;20026;-66
2022/01/26 00:48:21;;;;;;;87.73;39.20;;;;;;;-142.75;100.00;79667.91;4953127;28;20489;-66
2022/01/26 00:50:50;;;;;;;91.45;39.85;;;;;;;-142.75;100.00;79677.75;4953411;28;20023;-66
2022/01/26 00:53:17;;;;;;;92.60;41.10;;;;;;;-142.75;100.00;79697.44;4953101;28;20118;-66
2022/01/26 00:55:42;;;;;;;;;;;;;;;-142.75;100.00;79701.38;4953584;28;20038;-66
2022/01/26 00:58:08;;;;;;;94.67;40.60;;;;;;;-142.75;100.00;79705.34;4953089;28;19914;-67
2022/01/26 01:00:34;;;;;;;94.63;41.57;;;;;;;-142.75;100.00;79701.38;4953170;28;20438;-66
2022/01/26 01:03:01;;;;;;;94.32;42.17;;;;;;;-142.75;100.00;79717.16;4953321;28;20106;-66
2022/01/26 01:05:34;;;;;;;89.13;40.07;;;;;;;-142.75;100.00;79727.00;4953163;28;20023;-66
2022/01/26 01:08:07;;;;;;;95.93;41.43;;;;;;;-142.75;100.00;79752.63;4952963;28;20106;-66
2022/01/26 01:10:33;;;;;;;104.97;41.53;;;;;;;-142.75;100.00;79760.50;4953124;28;20046;-66
2022/01/26 01:13:00;;;;;;;97.80;41.83;;;;;;;-142.75;100.00;79778.22;4952824;28;20054;-66
2022/01/26 01:15:27;;;;;;;100.57;41.07;;;;;;;-142.75;100.00;79788.06;4960695;28;20026;-66
2022/01/26 01:18:03;;;;;;;101.07;42.77;;;;;;;-142.75;100.00;79792.00;4965575;28;20046;-66
2022/01/26 01:21:03;;;;;;;83.90;32.67;;;;;;;-142.75;100.00;79797.94;4951740;28;20023;-66
2022/01/26 01:31:54;;;;;;;101.07;41.10;;;;;;;-142.75;100.00;79807.78;4971962;28;20046;-66
2022/01/26 01:34:20;;;;;;;106.40;42.50;;;;;;;-142.75;100.00;79803.84;4955911;28;20038;-66
2022/01/26 01:36:49;;;;;;;110.70;43.73;;;;;;;-142.75;100.00;79803.84;4953916;28;20167;-65
2022/01/26 01:39:14;;;;;;;105.50;44.13;;;;;;;-142.75;100.00;79797.94;4970132;28;20039;-65
2022/01/26 01:41:42;;;;;;;112.95;45.33;;;;;;;-142.75;100.00;79792.00;4954293;28;20030;-66
2022/01/26 01:44:09;;;;;;;114.63;45.93;;;;;;;-142.75;100.00;79799.91;4955135;28;20118;-66
2022/01/26 01:46:34;;;;;;;114.93;46.77;;;;;;;-142.75;100.00;79799.91;4953048;28;20037;-67
2022/01/26 01:49:02;;;;;;;110.03;43.80;;;;;;;-142.75;100.00;79793.97;4951939;28;20027;-67
2022/01/26 01:51:32;;;;;;;109.47;42.37;;;;;;;-142.75;100.00;79784.13;4935047;28;20051;-66
2022/01/26 01:53:58;;;;;;;103.60;40.83;;;;;;;-142.75;100.00;79784.13;4935063;28;20078;-66
2022/01/26 01:56:25;;;;;;;101.90;42.30;;;;;;;-142.75;100.00;79784.13;4935103;28;20058;-67
2022/01/26 01:58:57;;;;;;;106.93;43.33;;;;;;;-142.75;100.00;79788.06;4952063;28;20168;-67
2022/01/26 02:01:22;;;;;;;99.23;41.73;;;;;;;-142.75;100.00;79788.06;4953569;28;20110;-66
2022/01/26 02:03:47;;;;;;;99.90;40.88;;;;;;;-142.75;100.00;79784.13;4971035;28;20110;-67
2022/01/26 02:06:12;;;;;;;110.32;42.05;;;;;;;-142.75;100.00;79778.22;4934611;28;20062;-67
2022/01/26 02:08:41;;;;;;;105.97;41.70;;;;;;;-142.75;100.00;79780.19;4951498;28;20492;-67
2022/01/26 02:11:09;;;;;;;111.30;44.07;;;;;;;-142.75;100.00;79784.13;4951983;28;20358;-64
2022/01/26 02:13:43;;;;;;;102.10;40.90;;;;;;;-142.75;100.00;79786.09;4951879;28;20620;-66
2022/01/26 02:16:18;;;;;;;104.47;43.03;;;;;;;-142.75;100.00;79790.03;4967122;28;20030;-66
2022/01/26 03:01:42;;;;;;;100.43;40.53;;;;;;;-142.75;100.00;79784.13;4970712;28;20318;-65
2022/01/26 03:04:30;;;;;;;110.73;43.00;;;;;;;-142.75;100.00;79782.16;4962072;28;20034;-66
2022/01/26 03:07:12;;;;;;;;;;;;;;;-142.75;100.00;79784.13;4965615;28;20114;-65
2022/01/26 03:09:44;;;;;;;120.13;42.83;;;;;;;-142.75;100.00;79772.31;4970367;28;19914;-65
2022/01/26 03:12:11;;;;;;;118.63;44.33;;;;;;;-142.75;100.00;79778.22;4970507;28;20026;-66
2022/01/26 03:14:54;;;;;;;116.13;41.73;;;;;;;-142.75;100.00;79780.19;4951829;28;20452;-66
2022/01/26 03:20:03;;;;;;;114.17;42.87;;;;;;;-142.75;100.00;79776.25;4953332;28;20031;-66
2022/01/26 03:28:20;;;;;;;117.40;44.73;;;;;;;-142.75;100.00;79768.38;4955014;28;20500;-67
2022/01/26 03:33:25;;;;;;;116.18;44.13;;;;;;;-142.75;100.00;79786.09;5012309;22;20115;-66
2022/01/26 03:35:57;;;;;;;128.10;46.40;;;;;;;-142.75;100.00;79790.03;5031608;28;20034;-65
2022/01/26 03:38:37;;;;;;;123.53;44.53;;;;;;;-142.75;100.00;79786.09;5032278;28;20056;-67
2022/01/26 03:41:16;;;;;;;125.10;46.53;;;;;;;-142.75;100.00;79776.25;5032708;28;20025;-65
2022/01/26 03:43:42;;;;;;;122.23;44.30;;;;;;;-142.75;100.00;79784.13;5032854;28;20027;-67
2022/01/26 03:46:08;;;;;;;;;;;;;;;-142.75;100.00;79776.25;5053824;28;20414;-64
2022/01/26 03:48:33;;;;;;;126.10;45.20;;;;;;;-142.75;100.00;79784.13;5052233;28;19916;-66
2022/01/26 03:51:00;;;;;;;121.25;44.33;;;;;;;-142.75;100.00;79784.13;5029464;28;20025;-67
2022/01/26 03:53:26;;;;;;;109.80;41.77;;;;;;;-142.75;100.00;79782.16;5032215;28;20075;-65
2022/01/26 03:55:51;;;;;;;122.25;45.28;;;;;;;-142.75;100.00;79788.06;5032500;28;20029;-66
2022/01/26 03:58:16;;;;;;;123.40;47.23;;;;;;;-142.75;100.00;79782.16;5032282;28;20021;-66
2022/01/26 04:00:42;;;;;;;120.25;44.45;;;;;;;-142.75;100.00;79782.16;5032430;28;20029;-66
2022/01/26 04:03:07;;;;;;;122.63;42.40;;;;;;;-142.75;100.00;79797.94;5032389;28;20493;-66
2022/01/26 04:05:32;;;;;;;123.13;45.90;;;;;;;-142.75;100.00;79799.91;5038076;28;20028;-66
2022/01/26 04:08:04;;;;;;;121.37;44.80;;;;;;;-142.75;100.00;79788.06;5031897;28;20757;-67
2022/01/26 04:10:46;;;;;;;119.83;43.97;;;;;;;-142.75;100.00;79792.00;5047117;28;20290;-66
2022/01/26 04:13:11;;;;;;;115.33;43.20;;;;;;;-142.75;100.00;79774.28;5051914;28;20017;-66
2022/01/26 04:15:38;;;;;;;115.00;42.60;;;;;;;-142.75;100.00;79778.22;5052015;28;20508;-66
2022/01/26 04:18:06;;;;;;;123.13;44.90;;;;;;;-142.75;100.00;79760.50;5052312;28;20029;-65
2022/01/26 04:20:37;;;;;;;117.53;43.03;;;;;;;-142.75;100.00;79758.53;5051774;28;20490;-66
2022/01/26 04:26:06;;;;;;;112.07;41.97;;;;;;;-142.75;100.00;79760.50;5009723;28;20547;-65
2022/01/26 04:28:40;;;;;;;116.97;44.47;;;;;;;-142.75;100.00;79758.53;5009394;28;20053;-66
2022/01/26 04:31:07;;;;;;;120.40;45.90;;;;;;;-142.75;100.00;79754.59;5029493;28;20037;-67
2022/01/26 04:33:34;;;;;;;118.30;44.27;;;;;;;-142.75;100.00;79750.66;5051401;28;20110;-66
2022/01/26 04:35:59;;;;;;;111.57;42.93;;;;;;;-142.75;100.00;79750.66;5051633;28;20040;-67
2022/01/26 04:38:37;;;;;;;110.90;43.72;;;;;;;-142.75;100.00;79736.84;5014243;28;20025;-66
2022/01/26 04:43:32;;;;;;;115.22;42.65;;;;;;;-142.75;100.00;79736.84;5051371;28;20105;-67
2022/01/26 04:45:57;;;;;;;119.50;44.37;;;;;;;-142.75;100.00;79740.78;5051865;28;20024;-66
2022/01/26 04:48:25;;;;;;;107.55;41.38;;;;;;;-142.75;100.00;79728.97;5051430;28;20090;-66
2022/01/26 04:50:51;;;;;;;111.63;42.97;;;;;;;-142.75;100.00;79736.84;5033159;28;20037;-66
2022/01/26 04:53:16;;;;;;;120.90;44.25;;;;;;;-142.75;100.00;79746.69;5033290;28;20021;-66
2022/01/26 04:55:42;;;;;;;121.03;44.60;;;;;;;-142.75;100.00;79750.66;5033319;28;20043;-67
2022/01/26 04:58:07;;;;;;;122.88;44.20;;;;;;;-142.75;100.00;79752.63;5050860;28;20278;-67
2022/01/26 05:00:32;;;;;;;117.17;44.83;;;;;;;-142.75;100.00;79744.72;5051105;28;20035;-66
2022/01/26 05:02:58;;;;;;;116.95;43.20;;;;;;;-142.75;100.00;79728.97;5040844;28;20097;-66
2022/01/26 05:05:23;;;;;;;115.28;43.10;;;;;;;-142.75;100.00;79734.88;5039045;28;20116;-66
2022/01/26 05:07:49;;;;;;;125.32;44.20;;;;;;;-142.75;100.00;79732.91;5050909;28;20402;-66
2022/01/26 05:10:14;;;;;;;118.57;45.63;;;;;;;-142.75;100.00;79725.03;5032769;28;20402;-67
2022/01/26 05:12:40;;;;;;;117.25;44.13;;;;;;;-142.75;100.00;79711.25;5043861;28;20090;-66
2022/01/26 05:15:06;;;;;;;110.95;42.10;;;;;;;-142.75;100.00;79713.22;5033017;28;20032;-65
2022/01/26 05:17:31;;;;;;;113.72;42.78;;;;;;;-142.75;100.00;79697.44;5051563;28;20033;-66
2022/01/26 05:19:59;;;;;;;113.95;41.20;;;;;;;-142.75;100.00;79685.63;5037582;28;20449;-67
2022/01/26 05:22:25;;;;;;;108.70;43.20;;;;;;;-142.75;100.00;79683.66;5032108;28;20021;-66
2022/01/26 05:24:52;;;;;;;114.28;43.25;;;;;;;-142.75;100.00;79677.75;5018796;28;20120;-65
2022/01/26 05:27:18;;;;;;;108.93;42.40;;;;;;;-142.75;100.00;79665.94;5045391;28;20116;-66
2022/01/26 05:29:43;;;;;;;112.63;43.42;;;;;;;-142.75;100.00;79667.91;5044214;28;20457;-66
2022/01/26 05:32:08;;;;;;;104.47;40.65;;;;;;;-142.75;100.00;79658.06;5050362;28;20478;-67
2022/01/26 05:34:33;;;;;;;101.77;38.73;;;;;;;-142.75;100.00;79638.34;5047440;28;20017;-68
2022/01/26 05:36:59;;;;;;;100.72;39.38;;;;;;;-142.75;100.00;79628.50;5032639;28;20117;-66
2022/01/26 05:39:24;;;;;;;97.25;37.90;;;;;;;-142.75;100.00;79622.59;5047802;28;20024;-67
2022/01/26 05:41:49;;;;;;;96.25;38.33;;;;;;;-142.75;100.00;79628.50;5029759;28;20091;-67
2022/01/26 05:44:15;;;;;;;99.32;38.80;;;;;;;-142.75;100.00;79616.69;5021429;28;20048;-67
2022/01/26 05:46:45;;;;;;;97.93;38.65;;;;;;;-142.75;100.00;79616.69;5033183;28;20023;-67
2022/01/26 05:49:11;;;;;;;78.77;32.10;;;;;;;-142.75;100.00;79644.25;5032081;28;20020;-66
2022/01/26 05:51:36;;;;;;;74.47;31.27;;;;;;;-142.75;100.00;79646.22;5048048;28;20103;-66
2022/01/26 05:54:04;;;;;;;68.78;29.13;;;;;;;-142.75;100.00;79646.22;5030274;28;20014;-66
2022/01/26 05:56:30;;;;;;;67.60;29.40;;;;;;;-142.75;100.00;79638.34;5012572;28;20064;-67
2022/01/26 05:58:55;;;;;;;68.00;29.17;;;;;;;-142.75;100.00;79654.13;5031411;28;20515;-66
2022/01/26 06:01:21;;;;;;;60.40;28.17;;;;;;;-142.75;100.00;79650.16;5013979;28;20032;-65
2022/01/26 06:03:47;;;;;;;66.53;28.42;;;;;;;-142.75;100.00;79654.13;5029995;28;20022;-66
2022/01/26 06:06:12;;;;;;;62.70;28.98;;;;;;;-142.75;100.00;79665.94;5030143;28;20021;-66
2022/01/26 06:08:38;;;;;;;60.63;29.02;;;;;;;-142.75;100.00;79665.94;5025606;28;20047;-66
2022/01/26 06:11:04;;;;;;;70.68;29.50;;;;;;;-142.75;100.00;79663.97;5038783;28;20029;-66
2022/01/26 06:13:29;;;;;;;;;;;;;;;-142.75;100.00;79685.63;5029007;28;20394;-66
2022/01/26 06:15:54;;;;;;;72.20;29.63;;;;;;;-142.75;100.00;79673.81;5032096;28;19917;-68
2022/01/26 06:18:20;;;;;;;67.18;29.95;;;;;;;-142.75;100.00;79671.84;5039220;28;20029;-67
2022/01/26 06:20:45;;;;;;;60.03;26.47;;;;;;;-142.75;100.00;79669.88;5044073;28;20502;-67
2022/01/26 06:23:12;;;;;;;62.42;27.98;;;;;;;-142.75;100.00;79673.81;5049524;28;20267;-67
2022/01/26 06:25:38;;;;;;;64.30;29.87;;;;;;;-142.75;100.00;79658.06;5049611;28;20024;-68
2022/01/26 06:28:08;;;;;;;66.28;28.33;;;;;;;-142.75;100.00;79654.13;5049046;28;20078;-68
2022/01/26 06:30:33;;;;;;;63.17;28.87;;;;;;;-142.75;100.00;79662.00;5044326;28;20149;-65
2022/01/26 06:32:59;;;;;;;67.50;28.85;;;;;;;-142.75;100.00;79648.19;5029350;28;20498;-67
2022/01/26 06:35:24;;;;;;;62.53;28.40;;;;;;;-142.75;100.00;79640.31;5032912;28;20025;-67
2022/01/26 06:37:50;;;;;;;65.85;30.00;;;;;;;-142.75;100.00;79652.13;5031407;28;20043;-66
2022/01/26 06:40:15;;;;;;;65.03;29.13;;;;;;;-142.75;100.00;79644.25;5031643;28;20430;-67
2022/01/26 06:45:20;;;;;;;63.93;27.70;;;;;;;-142.75;100.00;79650.16;5042146;28;20029;-66
2022/01/26 06:50:13;;;;;;;61.13;28.63;;;;;;;-142.75;100.00;79648.19;5029496;28;20029;-66
2022/01/26 06:52:39;;;;;;;58.72;27.63;;;;;;;-142.75;100.00;79663.97;5011467;28;20395;-67
2022/01/26 06:55:06;;;;;;;67.35;30.33;;;;;;;-142.75;100.00;79663.97;5014392;28;20017;-67
2022/01/26 06:57:31;;;;;;;66.20;29.00;;;;;;;-142.75;100.00;79685.63;5048566;28;20067;-66
2022/01/26 06:59:56;;;;;;;73.10;29.48;;;;;;;-142.75;100.00;79681.69;5031537;28;20108;-66
2022/01/26 07:02:21;;;;;;;70.23;29.50;;;;;;;-142.75;100.00;79685.63;5049125;28;20123;-69
2022/01/26 07:04:47;;;;;;;68.40;28.83;;;;;;;-142.75;100.00;79673.81;5048926;28;20351;-66
2022/01/26 07:07:12;;;;;;;60.53;29.13;;;;;;;-142.75;100.00;79677.75;5049093;28;20029;-68
2022/01/26 07:09:37;;;;;;;63.80;28.98;;;;;;;-142.75;100.00;79673.81;5042465;28;20033;-67
2022/01/26 07:12:03;;;;;;;64.77;28.53;;;;;;;-142.75;100.00;79669.88;5029223;28;20084;-67
2022/01/26 07:20:37;;;;;;;66.77;29.17;;;;;;;-142.75;100.00;79689.56;5048756;28;20101;-66
2022/01/26 07:22:41;;;;;;;64.67;29.23;;;;;;;-142.75;100.00;79691.53;5048669;28;20033;-68
2022/01/26 07:25:07;;;;;;;60.42;28.02;;;;;;;-142.75;100.00;79685.63;5048974;28;20513;-66
2022/01/26 07:27:32;;;;;;;68.65;28.15;;;;;;;-142.75;100.00;79669.88;5040348;28;20028;-65
2022/01/26 07:29:59;;;;;;;67.88;29.48;;;;;;;-142.75;100.00;79677.75;5048691;28;20103;-67
2022/01/26 07:32:26;;;;;;;75.10;29.00;;;;;;;-142.75;100.00;79691.53;5048634;28;20476;-67
2022/01/26 07:34:52;;;;;;;66.13;28.60;;;;;;;-142.75;100.00;79689.56;5030658;28;20043;-68
2022/01/26 07:37:18;;;;;;;64.20;29.67;;;;;;;-142.75;100.00;79697.44;5049027;28;20499;-67
2022/01/26 07:39:48;;;;;;;57.63;27.00;;;;;;;-142.75;100.00;79711.25;5048580;28;20267;-67
2022/01/26 07:42:14;;;;;;;65.73;27.87;;;;;;;-142.75;100.00;79703.38;5048902;28;20017;-66
2022/01/26 07:44:40;;;;;;;58.27;27.17;;;;;;;-142.75;100.00;79693.50;5048722;28;20064;-67
2022/01/26 07:47:06;;;;;;;58.80;26.25;;;;;;;-142.75;100.00;79693.50;5031720;28;20032;-67
2022/01/26 07:49:31;;;;;;;62.38;27.95;;;;;;;-142.75;100.00;79693.50;5048226;28;20028;-66
2022/01/26 07:51:57;;;;;;;61.85;26.58;;;;;;;-142.75;100.00;79687.59;5039554;28;20030;-65
2022/01/26 07:54:23;;;;;;;60.73;27.30;;;;;;;-142.75;100.00;79683.66;5028825;28;20028;-66
2022/01/26 07:56:49;;;;;;;59.97;27.43;;;;;;;-142.75;100.00;79685.63;5011030;28;20299;-65
2022/01/26 07:59:14;;;;;;;57.27;27.03;;;;;;;-142.75;100.00;79685.63;5010748;28;20025;-68
2022/01/26 08:01:39;;;;;;;54.15;26.15;;;;;;;-142.75;100.00;79685.63;5046088;28;20267;-67
2022/01/26 08:04:05;;;;;;;62.43;25.97;;;;;;;-142.75;100.00;79673.81;5049853;28;20520;-68
2022/01/26 08:06:31;;;;;;;50.42;24.05;;;;;;;-142.75;100.00;79665.94;5035043;28;20343;-68
2022/01/26 08:08:56;;;;;;;54.15;25.45;;;;;;;-142.75;100.00;79673.81;5033520;28;20025;-67
2022/01/26 08:11:24;;;;;;;57.13;23.63;;;;;;;-142.75;100.00;79669.88;5033647;28;20029;-67
2022/01/26 08:13:49;;;;;;;55.93;25.13;;;;;;;-142.75;100.00;79662.00;5032592;28;20108;-67
2022/01/26 08:16:14;;;;;;;52.85;23.08;;;;;;;-142.75;100.00;79658.06;5017374;28;20108;-67
2022/01/26 08:18:40;;;;;;;53.43;26.00;;;;;;;-142.75;100.00;79642.28;5038216;28;20368;-66
2022/01/26 08:21:06;;;;;;;53.55;22.75;;;;;;;-142.75;100.00;79654.13;5032962;28;20026;-67
2022/01/26 08:23:34;;;;;;;57.47;24.90;;;;;;;-142.75;100.00;79650.16;5032674;28;20024;-67
2022/01/26 08:26:00;;;;;;;52.33;24.20;;;;;;;-142.75;100.00;79646.22;5030948;28;20021;-67
2022/01/26 08:28:34;;;;;;;55.83;25.45;;;;;;;-142.75;100.00;79650.16;5042008;28;20036;-66
2022/01/26 08:31:00;;;;;;;54.47;24.10;;;;;;;-142.75;100.00;79646.22;5047327;28;20101;-68
2022/01/26 08:33:25;;;;;;;54.03;23.67;;;;;;;-142.75;100.00;79632.44;5033894;28;20124;-67
2022/01/26 08:35:51;;;;;;;61.20;25.33;;;;;;;-142.75;100.00;79632.44;5035567;28;20033;-67
2022/01/26 08:38:16;;;;;;;57.72;24.95;;;;;;;-142.75;100.00;79622.59;5047667;28;20033;-67
2022/01/26 08:40:43;;;;;;;55.55;24.92;;;;;;;-142.75;100.00;79614.72;5032004;28;20071;-66
2022/01/26 08:43:09;;;;;;;55.20;24.90;;;;;;;-142.75;100.00;79614.72;5050228;28;20391;-68
2022/01/26 08:45:34;;;;;;;57.13;24.13;;;;;;;-142.75;100.00;79630.47;5033726;28;20032;-66
2022/01/26 08:48:00;;;;;;;57.45;25.67;;;;;;;-142.75;100.00;79630.47;5032560;28;20445;-66
2022/01/26 08:50:25;;;;;;;51.88;23.02;;;;;;;-142.75;100.00;79624.56;5040627;28;20092;-67
2022/01/26 08:52:51;;;;;;;59.30;22.77;;;;;;;-142.75;100.00;79620.63;5034123;28;20033;-65
2022/01/26 08:55:16;;;;;;;62.25;24.95;;;;;;;-142.75;100.00;79610.78;5051563;28;20272;-66
2022/01/26 08:57:41;;;;;;;57.40;23.20;;;;;;;-142.75;100.00;79610.78;5027624;28;20375;-66
2022/01/26 09:00:09;;;;;;;60.47;24.47;;;;;;;-142.75;100.00;79608.81;5032446;28;20264;-67
2022/01/26 09:02:35;;;;;;;58.87;23.70;;;;;;;-142.75;100.00;79600.91;5015607;28;20433;-66
2022/01/26 09:05:00;;;;;;;;;;;;;;;-142.75;100.00;79614.72;5034241;28;20028;-66
2022/01/26 09:07:26;;;;;;;56.67;22.57;;;;;;;-142.75;100.00;79616.69;5031211;28;19913;-65
2022/01/26 09:09:54;;;;;;;56.47;22.52;;;;;;;-142.75;100.00;79608.81;5041077;28;20099;-66
2022/01/26 09:12:21;;;;;;;48.07;20.70;;;;;;;-142.75;100.00;79610.78;5030520;28;20068;-66
2022/01/26 09:14:47;;;;;;;47.23;21.63;;;;;;;-142.75;100.00;79604.88;5049166;28;20013;-66
2022/01/26 09:17:13;;;;;;;48.40;20.80;;;;;;;-142.75;100.00;79595.00;5040418;28;20087;-67
2022/01/26 09:19:42;;;;;;;44.43;20.73;;;;;;;-142.75;100.00;79595.00;5032955;28;20024;-67
2022/01/26 09:22:11;;;;;;;51.37;21.47;;;;;;;-142.75;100.00;79591.06;5033171;28;20087;-66
2022/01/26 09:24:38;;;;;;;53.57;21.87;;;;;;;-142.75;100.00;79583.19;5031162;28;20021;-65
2022/01/26 09:27:06;;;;;;;47.23;22.13;;;;;;;-142.75;100.00;79595.00;5030805;28;20052;-65
2022/01/26 09:29:34;;;;;;;49.40;21.97;;;;;;;-142.75;100.00;79593.03;5012859;28;20017;-65
2022/01/26 09:32:01;;;;;;;45.57;20.93;;;;;;;-142.75;100.00;79595.00;5013293;28;20025;-65
2022/01/26 09:34:30;;;;;;;;;;;;;;;-142.75;100.00;79587.13;5031322;28;20028;-65
2022/01/26 09:36:56;;;;;;;59.13;21.87;;;;;;;-142.75;100.00;79581.22;5030785;28;19921;-65
2022/01/26 09:39:22;;;;;;;53.70;22.52;;;;;;;-142.75;100.00;79573.34;5030259;28;20375;-65
2022/01/26 09:41:50;;;;;;;50.05;21.98;;;;;;;-142.75;100.00;79567.44;5031011;28;20033;-65
2022/01/26 09:44:16;;;;;;;53.33;22.03;;;;;;;-142.75;100.00;79571.38;5012774;28;20482;-66
2022/01/26 09:46:43;;;;;;;44.43;21.07;;;;;;;-142.75;100.00;79563.50;5013327;28;20052;-65
2022/01/26 09:49:08;;;;;;;;;;;;;;;-142.75;100.00;79553.63;5043773;28;20029;-66
2022/01/26 09:51:40;;;;;;;51.53;21.63;;;;;;;-142.75;100.00;79541.81;5026919;28;20567;-66
2022/01/26 09:54:13;;;;;;;53.53;22.40;;;;;;;-142.75;100.00;79553.63;5025534;28;20028;-68
2022/01/26 09:56:39;;;;;;;50.13;22.73;;;;;;;-142.75;100.00;79545.75;5032419;28;20029;-66
2022/01/26 09:59:06;;;;;;;49.72;20.67;;;;;;;-142.75;100.00;79537.88;5041277;28;20043;-67
2022/01/26 10:01:43;;;;;;;47.67;21.03;;;;;;;-142.75;100.00;79530.00;5049014;28;20032;-66
2022/01/26 10:04:31;;;;;;;47.83;21.77;;;;;;;-142.75;100.00;79520.16;5039984;28;20029;-66
2022/01/26 10:07:09;;;;;;;48.53;22.53;;;;;;;-142.75;100.00;79510.31;5050689;28;20036;-66
2022/01/26 10:17:44;;;;;;;43.20;20.03;;;;;;;-142.75;100.00;79492.56;5029959;28;20457;-67
2022/01/26 10:20:15;;;;;;;44.80;20.37;;;;;;;-142.75;100.00;79506.38;5030042;28;20029;-67
2022/01/26 10:22:41;;;;;;;44.83;20.40;;;;;;;-142.75;100.00;79496.50;5028587;28;20021;-67
2022/01/26 10:25:08;;;;;;;39.23;19.40;;;;;;;-142.75;100.00;79494.53;5044485;28;20120;-67
2022/01/26 10:27:42;;;;;;;38.50;18.90;;;;;;;-142.75;100.00;79498.47;5037402;28;20033;-67
2022/01/26 10:30:11;;;;;;;45.57;20.50;;;;;;;-142.75;100.00;79494.53;5031767;28;20060;-66
2022/01/26 10:32:37;;;;;;;42.50;20.20;;;;;;;-142.75;100.00;79492.56;5031930;28;20028;-67
2022/01/26 10:35:05;;;;;;;45.50;20.60;;;;;;;-142.75;100.00;79476.81;5036928;28;20395;-66
2022/01/26 10:37:30;;;;;;;45.00;20.90;;;;;;;-142.75;100.00;79466.97;5035635;28;20021;-66
2022/01/26 10:40:15;;;;;;;45.30;20.50;;;;;;;-142.75;100.00;79463.03;5035118;28;20087;-68
2022/01/26 10:42:53;;;;;;;43.57;20.07;;;;;;;-142.75;100.00;79472.88;5033953;28;20052;-67
2022/01/26 10:45:31;;;;;;;44.77;21.43;;;;;;;-142.75;100.00;79468.94;5033184;28;20550;-67
2022/01/26 10:48:17;;;;;;;43.30;20.63;;;;;;;-142.75;100.00;79461.06;5046670;28;20040;-65
2022/01/26 10:50:48;;;;;;;40.13;19.10;;;;;;;-142.75;100.00;79435.44;5036479;28;20061;-65
2022/01/26 10:53:20;;;;;;;39.87;19.43;;;;;;;-142.75;100.00;79437.41;5038064;28;20110;-68
2022/01/26 10:55:45;;;;;;;44.67;20.90;;;;;;;-142.75;100.00;79423.63;5047292;28;20029;-66
2022/01/26 10:58:11;;;;;;;41.33;19.75;;;;;;;-142.75;100.00;79409.84;5020211;28;20032;-66
2022/01/26 11:00:43;;;;;;;36.13;19.05;;;;;;;-142.75;100.00;79398.03;5031016;28;20029;-65
2022/01/26 11:03:09;;;;;;;35.43;18.33;;;;;;;-142.75;100.00;79398.03;5030694;28;20081;-66
2022/01/26 11:05:35;;;;;;;38.22;18.75;;;;;;;-142.75;100.00;79384.22;5011881;28;20495;-66
2022/01/26 11:08:01;;;;;;;37.47;18.48;;;;;;;-142.75;100.00;79376.34;5018278;28;20052;-66
2022/01/26 11:10:35;;;;;;;41.03;18.83;;;;;;;-142.75;100.00;79372.41;5045001;28;20029;-66
2022/01/26 11:13:02;;;;;;;37.93;18.33;;;;;;;-142.75;100.00;79364.53;5039153;28;20763;-66
2022/01/26 11:15:27;;;;;;;30.83;17.40;;;;;;;-142.75;100.00;79350.75;5045549;28;20028;-66
2022/01/26 11:18:05;;;;;;;34.30;17.17;;;;;;;-142.75;100.00;79360.59;5048187;28;20033;-66
2022/01/26 11:20:34;;;;;;;35.30;17.13;;;;;;;-142.75;100.00;79360.59;5041363;28;20445;-66
2022/01/26 11:23:02;;;;;;;40.63;17.97;;;;;;;-142.75;100.00;79360.59;5041903;28;20024;-67
2022/01/26 11:25:30;;;;;;;37.17;17.17;;;;;;;-142.75;100.00;79342.88;5042770;28;20032;-67
2022/01/26 11:27:57;;;;;;;37.40;15.77;;;;;;;-142.75;100.00;79338.94;5009136;28;20052;-68
2022/01/26 11:30:28;;;;;;;30.00;15.40;;;;;;;-142.75;100.00;79317.25;5027699;28;20048;-68
2022/01/26 11:32:59;;;;;;;31.40;15.10;;;;;;;-142.75;100.00;79319.22;5043446;28;20025;-65
2022/01/26 11:35:31;;;;;;;32.47;14.93;;;;;;;-142.75;100.00;79313.31;5035509;28;20033;-65
2022/01/26 11:38:10;;;;;;;28.37;15.13;;;;;;;-142.75;100.00;79317.25;5023269;28;20108;-67
2022/01/26 11:46:36;;;;;;;33.33;15.03;;;;;;;-142.75;100.00;79305.44;5039001;28;20040;-66
2022/01/26 11:49:06;;;;;;;29.47;15.37;;;;;;;-142.75;100.00;79307.41;5040036;28;20029;-66
2022/01/26 11:51:42;;;;;;;31.03;15.30;;;;;;;-142.75;100.00;79297.56;5038169;28;20639;-67
2022/01/26 11:54:13;;;;;;;29.35;14.35;;;;;;;-142.75;100.00;79285.75;5041469;28;20021;-67
2022/01/26 11:56:39;;;;;;;30.23;15.00;;;;;;;-142.75;100.00;79283.78;5036974;28;20033;-67
2022/01/26 11:59:15;;;;;;;30.30;14.15;;;;;;;-142.75;100.00;79277.88;5041068;28;20053;-68
2022/01/26 12:01:42;;;;;;;27.13;15.60;;;;;;;-142.75;100.00;79279.84;5015123;28;20491;-68
2022/01/26 12:04:16;;;;;;;29.03;14.50;;;;;;;-142.75;100.00;79275.88;5039487;28;20537;-66
2022/01/26 12:06:48;;;;;;;29.80;14.60;;;;;;;-142.75;100.00;79285.75;5044102;28;20033;-68
2022/01/26 12:09:14;;;;;;;31.30;15.03;;;;;;;-142.75;100.00;79279.84;5023253;28;20116;-66
2022/01/26 12:11:46;;;;;;;26.88;13.98;;;;;;;-142.75;100.00;79271.94;5024575;28;20111;-66
2022/01/26 12:14:13;;;;;;;28.80;14.33;;;;;;;-142.75;100.00;79277.88;5038582;28;20039;-66
2022/01/26 12:16:44;;;;;;;33.90;15.30;;;;;;;-142.75;100.00;79268.00;5022962;28;20048;-67
2022/01/26 12:38:05;;;;;;;28.13;14.30;;;;;;;-142.75;100.00;79275.88;5040569;28;20034;-66
2022/01/26 12:43:31;;;;;;;25.90;13.27;;;;;;;-142.75;100.00;79250.28;5040852;28;20111;-66
2022/01/26 12:45:57;;;;;;;31.97;14.47;;;;;;;-142.75;100.00;79240.44;5037651;28;20486;-65
2022/01/26 12:48:23;;;;;;;27.42;13.65;;;;;;;-142.75;100.00;79248.31;5044946;28;20060;-66
2022/01/26 12:50:48;;;;;;;;;;;;;;;-142.75;100.00;79238.47;5037093;28;20020;-66
2022/01/26 12:53:14;;;;;;;29.20;14.33;;;;;;;-142.75;100.00;79234.53;5020097;28;20036;-68
2022/01/26 12:55:40;;;;;;;27.67;13.85;;;;;;;-142.75;100.00;79242.41;5041906;28;20095;-68
2022/01/26 12:58:06;;;;;;;29.40;14.60;;;;;;;-142.75;100.00;79238.47;5018882;28;20028;-66
2022/01/26 13:00:43;;;;;;;25.80;14.45;;;;;;;-142.75;100.00;79240.44;5021924;28;20067;-66
2022/01/26 13:03:15;;;;;;;31.17;14.27;;;;;;;-142.75;100.00;79240.44;5033627;28;20048;-66
2022/01/26 13:05:41;;;;;;;29.07;14.50;;;;;;;-142.75;100.00;79240.44;5036025;28;20025;-66
2022/01/26 13:08:07;;;;;;;;;;;;;;;-142.75;100.00;79228.63;5031259;28;20518;-67
2022/01/26 13:10:33;;;;;;;31.87;13.33;;;;;;;-142.75;100.00;79234.53;5022385;28;20291;-66